sensor_id;sensor_type;location;lat;lon;timestamp;pressure;altitude;pressure_sealevel;temperature;humidity
59009;BME280;44794;42.652;23.318;2023-03-11T00:02:17;92510.56;;;9.66;100.00
59009;BME280;44794;42.652;23.318;2023-03-11T00:04:43;92528.50;;;9.59;100.00
59009;BME280;44794;42.652;23.318;2023-03-11T00:07:09;92532.13;;;9.25;100.00
59009;BME280;44794;42.652;23.318;2023-03-11T00:09:35;92524.78;;;9.12;100.00
59009;BME280;44794;42.652;23.318;2023-03-11T00:12:01;92525.81;;;8.94;100.00
59009;BME280;44794;42.652;23.318;2023-03-11T00:14:26;92545.50;;;8.87;100.00
59009;BME280;44794;42.652;23.318;2023-03-11T00:16:52;92532.84;;;8.76;100.00
59009;BME280;44794;42.652;23.318;2023-03-11T00:19:17;92551.84;;;8.67;100.00
59009;BME280;44794;42.652;23.318;2023-03-11T00:21:43;92534.03;;;8.64;100.00
59009;BME280;44794;42.652;23.318;2023-03-11T00:24:08;92538.13;;;8.67;100.00
59009;BME280;44794;42.652;23.318;2023-03-11T00:26:34;92546.97;;;8.64;100.00
59009;BME280;44794;42.652;23.318;2023-03-11T00:28:59;92541.22;;;8.78;100.00
59009;BME280;44794;42.652;23.318;2023-03-11T00:31:25;92541.41;;;8.77;100.00
59009;BME280;44794;42.652;23.318;2023-03-11T00:33:53;92530.53;;;8.73;100.00
59009;BME280;44794;42.652;23.318;2023-03-11T00:36:29;92523.94;;;8.79;100.00
59009;BME280;44794;42.652;23.318;2023-03-11T00:38:56;92523.78;;;8.80;100.00
59009;BME280;44794;42.652;23.318;2023-03-11T00:41:22;92531.75;;;8.87;100.00
59009;BME280;44794;42.652;23.318;2023-03-11T00:43:47;92524.28;;;8.84;100.00
59009;BME280;44794;42.652;23.318;2023-03-11T00:46:13;92526.72;;;8.85;100.00
59009;BME280;44794;42.652;23.318;2023-03-11T00:48:38;92524.47;;;8.82;100.00
59009;BME280;44794;42.652;23.318;2023-03-11T00:51:06;92510.75;;;8.90;100.00
59009;BME280;44794;42.652;23.318;2023-03-11T00:53:31;92483.59;;;8.94;100.00
59009;BME280;44794;42.652;23.318;2023-03-11T00:55:56;92475.50;;;8.96;100.00
59009;BME280;44794;42.652;23.318;2023-03-11T00:58:22;92472.59;;;8.92;100.00
59009;BME280;44794;42.652;23.318;2023-03-11T01:00:51;92477.59;;;8.93;100.00
59009;BME280;44794;42.652;23.318;2023-03-11T01:03:17;92479.03;;;8.88;100.00
59009;BME280;44794;42.652;23.318;2023-03-11T01:05:42;92479.28;;;8.77;100.00
59009;BME280;44794;42.652;23.318;2023-03-11T01:08:07;92478.69;;;8.83;100.00
59009;BME280;44794;42.652;23.318;2023-03-11T01:10:34;92474.66;;;8.88;100.00
59009;BME280;44794;42.652;23.318;2023-03-11T01:12:59;92457.19;;;8.82;100.00
59009;BME280;44794;42.652;23.318;2023-03-11T01:15:32;92460.88;;;8.80;100.00
59009;BME280;44794;42.652;23.318;2023-03-11T01:17:57;92456.34;;;8.74;100.00
59009;BME280;44794;42.652;23.318;2023-03-11T01:20:23;92454.53;;;8.74;100.00
59009;BME280;44794;42.652;23.318;2023-03-11T01:22:49;92446.16;;;8.80;100.00
59009;BME280;44794;42.652;23.318;2023-03-11T01:25:17;92435.47;;;8.75;100.00
59009;BME280;44794;42.652;23.318;2023-03-11T01:27:43;92421.19;;;8.63;100.00
59009;BME280;44794;42.652;23.318;2023-03-11T01:30:13;92423.13;;;8.61;100.00
59009;BME280;44794;42.652;23.318;2023-03-11T01:32:39;92420.69;;;8.60;100.00
59009;BME280;44794;42.652;23.318;2023-03-11T01:35:05;92409.84;;;8.56;100.00
59009;BME280;44794;42.652;23.318;2023-03-11T01:37:30;92391.38;;;8.51;100.00
59009;BME280;44794;42.652;23.318;2023-03-11T01:39:55;92375.84;;;8.51;100.00
59009;BME280;44794;42.652;23.318;2023-03-11T01:42:21;92349.78;;;8.37;100.00
59009;BME280;44794;42.652;23.318;2023-03-11T01:44:46;92348.00;;;8.37;100.00
59009;BME280;44794;42.652;23.318;2023-03-11T01:49:38;92341.47;;;8.25;100.00
59009;BME280;44794;42.652;23.318;2023-03-11T01:52:06;92334.22;;;8.29;100.00
59009;BME280;44794;42.652;23.318;2023-03-11T01:54:39;92341.63;;;8.24;100.00
59009;BME280;44794;42.652;23.318;2023-03-11T01:57:08;92349.50;;;8.15;100.00
59009;BME280;44794;42.652;23.318;2023-03-11T01:59:39;92354.28;;;8.10;100.00
59009;BME280;44794;42.652;23.318;2023-03-11T02:02:15;92396.28;;;8.12;100.00
59009;BME280;44794;42.652;23.318;2023-03-11T02:04:42;92384.41;;;8.19;100.00
59009;BME280;44794;42.652;23.318;2023-03-11T02:07:09;92391.38;;;8.26;100.00
59009;BME280;44794;42.652;23.318;2023-03-11T02:09:35;92379.63;;;8.31;100.00
59009;BME280;44794;42.652;23.318;2023-03-11T02:12:02;92372.72;;;8.40;100.00
59009;BME280;44794;42.652;23.318;2023-03-11T02:14:29;92387.09;;;8.34;100.00
59009;BME280;44794;42.652;23.318;2023-03-11T02:16:56;92394.69;;;8.36;100.00
59009;BME280;44794;42.652;23.318;2023-03-11T02:22:06;92399.19;;;8.34;100.00
59009;BME280;44794;42.652;23.318;2023-03-11T02:27:13;92414.41;;;8.37;100.00
59009;BME280;44794;42.652;23.318;2023-03-11T02:29:41;92416.84;;;8.38;100.00
59009;BME280;44794;42.652;23.318;2023-03-11T02:32:08;92416.34;;;8.35;100.00
59009;BME280;44794;42.652;23.318;2023-03-11T02:34:37;92413.28;;;8.39;100.00
59009;BME280;44794;42.652;23.318;2023-03-11T02:37:05;92424.53;;;8.30;100.00
59009;BME280;44794;42.652;23.318;2023-03-11T02:39:37;92405.53;;;8.39;100.00
59009;BME280;44794;42.652;23.318;2023-03-11T02:42:25;92415.81;;;8.31;100.00
59009;BME280;44794;42.652;23.318;2023-03-11T02:47:26;92424.03;;;8.27;100.00
59009;BME280;44794;42.652;23.318;2023-03-11T02:49:53;92441.78;;;8.22;100.00
59009;BME280;44794;42.652;23.318;2023-03-11T02:52:20;92436.69;;;8.30;100.00
59009;BME280;44794;42.652;23.318;2023-03-11T02:54:46;92445.38;;;8.29;100.00
59009;BME280;44794;42.652;23.318;2023-03-11T02:57:11;92435.84;;;8.29;100.00
59009;BME280;44794;42.652;23.318;2023-03-11T02:59:37;92427.28;;;8.29;100.00
59009;BME280;44794;42.652;23.318;2023-03-11T03:02:02;92428.81;;;8.39;100.00
59009;BME280;44794;42.652;23.318;2023-03-11T03:04:28;92443.72;;;8.45;100.00
59009;BME280;44794;42.652;23.318;2023-03-11T03:06:53;92464.63;;;8.52;100.00
59009;BME280;44794;42.652;23.318;2023-03-11T03:09:18;92473.22;;;8.60;100.00
59009;BME280;44794;42.652;23.318;2023-03-11T03:11:44;92467.88;;;8.62;100.00
59009;BME280;44794;42.652;23.318;2023-03-11T03:14:09;92476.44;;;8.54;100.00
59009;BME280;44794;42.652;23.318;2023-03-11T03:16:35;92473.34;;;8.51;100.00
59009;BME280;44794;42.652;23.318;2023-03-11T03:19:00;92504.56;;;8.57;100.00
59009;BME280;44794;42.652;23.318;2023-03-11T03:21:25;92553.31;;;8.95;100.00
59009;BME280;44794;42.652;23.318;2023-03-11T03:23:51;92602.59;;;9.11;100.00
59009;BME280;44794;42.652;23.318;2023-03-11T03:26:16;92637.63;;;9.48;100.00
59009;BME280;44794;42.652;23.318;2023-03-11T03:28:42;92646.69;;;9.52;100.00
59009;BME280;44794;42.652;23.318;2023-03-11T03:31:09;92650.78;;;9.63;98.49
59009;BME280;44794;42.652;23.318;2023-03-11T03:33:35;92661.53;;;9.75;95.91
59009;BME280;44794;42.652;23.318;2023-03-11T03:36:05;92672.91;;;9.82;93.87
59009;BME280;44794;42.652;23.318;2023-03-11T03:38:31;92660.81;;;9.91;92.46
59009;BME280;44794;42.652;23.318;2023-03-11T03:40:56;92667.84;;;9.98;90.72
59009;BME280;44794;42.652;23.318;2023-03-11T03:43:22;92661.72;;;10.07;90.15
59009;BME280;44794;42.652;23.318;2023-03-11T03:46:01;92661.72;;;10.07;91.25
59009;BME280;44794;42.652;23.318;2023-03-11T03:48:26;92655.72;;;10.07;90.73
59009;BME280;44794;42.652;23.318;2023-03-11T03:50:52;92664.66;;;10.12;90.08
59009;BME280;44794;42.652;23.318;2023-03-11T03:53:17;92666.00;;;10.24;87.45
59009;BME280;44794;42.652;23.318;2023-03-11T03:55:43;92657.25;;;10.33;87.47
59009;BME280;44794;42.652;23.318;2023-03-11T03:58:08;92655.31;;;10.35;85.77
59009;BME280;44794;42.652;23.318;2023-03-11T04:00:34;92665.22;;;10.32;87.40
59009;BME280;44794;42.652;23.318;2023-03-11T04:03:00;92641.84;;;10.32;87.85
59009;BME280;44794;42.652;23.318;2023-03-11T04:05:26;92652.72;;;10.35;87.79
59009;BME280;44794;42.652;23.318;2023-03-11T04:07:52;92655.31;;;10.35;87.10
59009;BME280;44794;42.652;23.318;2023-03-11T04:10:18;92661.16;;;10.29;86.38
59009;BME280;44794;42.652;23.318;2023-03-11T04:12:44;92664.53;;;10.30;85.62
59009;BME280;44794;42.652;23.318;2023-03-11T04:15:09;92659.72;;;10.35;87.03
59009;BME280;44794;42.652;23.318;2023-03-11T04:17:35;92660.81;;;10.24;86.00
59009;BME280;44794;42.652;23.318;2023-03-11T04:20:00;92679.47;;;10.28;84.57
59009;BME280;44794;42.652;23.318;2023-03-11T04:22:26;92677.47;;;10.22;84.30
59009;BME280;44794;42.652;23.318;2023-03-11T04:24:51;92671.34;;;10.23;84.71
59009;BME280;44794;42.652;23.318;2023-03-11T04:27:17;92675.69;;;10.14;84.83
59009;BME280;44794;42.652;23.318;2023-03-11T04:29:42;92677.66;;;10.20;84.31
59009;BME280;44794;42.652;23.318;2023-03-11T04:32:07;92676.34;;;10.16;84.61
59009;BME280;44794;42.652;23.318;2023-03-11T04:34:33;92671.94;;;10.09;84.20
59009;BME280;44794;42.652;23.318;2023-03-11T04:36:58;92674.69;;;10.07;84.61
59009;BME280;44794;42.652;23.318;2023-03-11T04:39:24;92673.72;;;10.08;84.00
59009;BME280;44794;42.652;23.318;2023-03-11T04:41:49;92675.69;;;10.14;83.48
59009;BME280;44794;42.652;23.318;2023-03-11T04:44:14;92672.13;;;10.15;83.89
59009;BME280;44794;42.652;23.318;2023-03-11T04:46:40;92679.91;;;10.15;83.30
59009;BME280;44794;42.652;23.318;2023-03-11T04:49:05;92687.06;;;10.21;82.87
59009;BME280;44794;42.652;23.318;2023-03-11T04:51:31;92679.91;;;10.15;83.79
59009;BME280;44794;42.652;23.318;2023-03-11T04:53:56;92681.19;;;10.11;84.37
59009;BME280;44794;42.652;23.318;2023-03-11T04:56:22;92672.63;;;10.19;84.08
59009;BME280;44794;42.652;23.318;2023-03-11T04:58:47;92689.00;;;10.19;83.29
59009;BME280;44794;42.652;23.318;2023-03-11T05:01:12;92690.94;;;10.25;82.69
59009;BME280;44794;42.652;23.318;2023-03-11T05:03:38;92693.91;;;10.30;82.35
59009;BME280;44794;42.652;23.318;2023-03-11T05:06:03;92692.44;;;10.36;81.64
59009;BME280;44794;42.652;23.318;2023-03-11T05:08:29;92699.94;;;10.47;81.38
59009;BME280;44794;42.652;23.318;2023-03-11T05:10:54;92708.22;;;10.50;80.67
59009;BME280;44794;42.652;23.318;2023-03-11T05:13:20;92711.50;;;10.52;80.84
59009;BME280;44794;42.652;23.318;2023-03-11T05:15:46;92709.53;;;10.54;80.15
59009;BME280;44794;42.652;23.318;2023-03-11T05:18:12;92724.97;;;10.63;79.84
59009;BME280;44794;42.652;23.318;2023-03-11T05:20:37;92729.19;;;10.64;79.45
59009;BME280;44794;42.652;23.318;2023-03-11T05:23:03;92729.69;;;10.68;79.09
59009;BME280;44794;42.652;23.318;2023-03-11T05:25:29;92732.44;;;10.66;80.03
59009;BME280;44794;42.652;23.318;2023-03-11T05:27:54;92737.63;;;10.66;79.90
59009;BME280;44794;42.652;23.318;2023-03-11T05:30:19;92743.31;;;10.70;79.22
59009;BME280;44794;42.652;23.318;2023-03-11T05:32:45;92748.50;;;10.70;79.38
59009;BME280;44794;42.652;23.318;2023-03-11T05:35:10;92748.19;;;10.73;78.65
59009;BME280;44794;42.652;23.318;2023-03-11T05:37:36;92746.75;;;10.78;77.96
59009;BME280;44794;42.652;23.318;2023-03-11T05:40:08;92752.41;;;10.82;77.63
59009;BME280;44794;42.652;23.318;2023-03-11T05:42:34;92759.06;;;10.84;78.49
59009;BME280;44794;42.652;23.318;2023-03-11T05:45:00;92756.19;;;10.87;78.80
59009;BME280;44794;42.652;23.318;2023-03-11T05:47:25;92752.63;;;10.88;79.26
59009;BME280;44794;42.652;23.318;2023-03-11T05:49:50;92748.88;;;10.91;79.20
59009;BME280;44794;42.652;23.318;2023-03-11T05:52:16;92762.34;;;10.94;79.54
59009;BME280;44794;42.652;23.318;2023-03-11T05:54:41;92751.47;;;10.91;80.65
59009;BME280;44794;42.652;23.318;2023-03-11T05:57:07;92762.84;;;10.90;82.02
59009;BME280;44794;42.652;23.318;2023-03-11T05:59:33;92771.44;;;10.82;81.36
59009;BME280;44794;42.652;23.318;2023-03-11T06:02:00;92779.72;;;10.86;80.49
59009;BME280;44794;42.652;23.318;2023-03-11T06:04:25;92781.66;;;10.84;80.93
59009;BME280;44794;42.652;23.318;2023-03-11T06:06:51;92789.09;;;10.79;81.59
59009;BME280;44794;42.652;23.318;2023-03-11T06:09:16;92781.59;;;10.68;81.76
59009;BME280;44794;42.652;23.318;2023-03-11T06:11:42;92786.44;;;10.63;82.34
59009;BME280;44794;42.652;23.318;2023-03-11T06:14:12;92792.31;;;10.65;82.47
59009;BME280;44794;42.652;23.318;2023-03-11T06:16:38;92793.56;;;10.61;82.41
59009;BME280;44794;42.652;23.318;2023-03-11T06:19:04;92786.09;;;10.50;83.73
59009;BME280;44794;42.652;23.318;2023-03-11T06:21:30;92777.25;;;10.35;85.73
59009;BME280;44794;42.652;23.318;2023-03-11T06:23:55;92775.59;;;10.26;87.44
59009;BME280;44794;42.652;23.318;2023-03-11T06:26:22;92779.16;;;10.25;87.68
59009;BME280;44794;42.652;23.318;2023-03-11T06:28:49;92773.38;;;10.31;87.86
59009;BME280;44794;42.652;23.318;2023-03-11T06:31:22;92771.41;;;10.33;87.81
59009;BME280;44794;42.652;23.318;2023-03-11T06:33:49;92773.06;;;10.42;88.17
59009;BME280;44794;42.652;23.318;2023-03-11T06:36:17;92781.03;;;10.41;86.17
59009;BME280;44794;42.652;23.318;2023-03-11T06:38:43;92778.78;;;10.53;87.03
59009;BME280;44794;42.652;23.318;2023-03-11T06:41:10;92790.19;;;10.60;84.95
59009;BME280;44794;42.652;23.318;2023-03-11T06:43:35;92790.84;;;10.62;83.54
59009;BME280;44794;42.652;23.318;2023-03-11T06:46:10;92783.91;;;10.79;82.99
59009;BME280;44794;42.652;23.318;2023-03-11T06:48:36;92798.53;;;10.88;81.83
59009;BME280;44794;42.652;23.318;2023-03-11T06:51:02;92803.41;;;10.91;79.60
59009;BME280;44794;42.652;23.318;2023-03-11T06:53:28;92808.97;;;11.04;79.87
59009;BME280;44794;42.652;23.318;2023-03-11T06:56:04;92806.38;;;11.12;80.20
59009;BME280;44794;42.652;23.318;2023-03-11T06:58:31;92804.44;;;11.29;80.73
59009;BME280;44794;42.652;23.318;2023-03-11T07:01:05;92808.84;;;11.29;79.30
59009;BME280;44794;42.652;23.318;2023-03-11T07:03:31;92816.16;;;11.25;78.62
59009;BME280;44794;42.652;23.318;2023-03-11T07:05:57;92814.97;;;11.04;80.12
59009;BME280;44794;42.652;23.318;2023-03-11T07:08:24;92809.28;;;10.93;81.24
59009;BME280;44794;42.652;23.318;2023-03-11T07:11:04;92798.50;;;10.72;82.27
59009;BME280;44794;42.652;23.318;2023-03-11T07:13:30;92802.41;;;10.84;83.28
59009;BME280;44794;42.652;23.318;2023-03-11T07:16:03;92809.28;;;11.01;83.41
59009;BME280;44794;42.652;23.318;2023-03-11T07:18:30;92793.88;;;11.15;83.49
59009;BME280;44794;42.652;23.318;2023-03-11T07:20:56;92790.50;;;11.30;82.27
59009;BME280;44794;42.652;23.318;2023-03-11T07:23:21;92794.56;;;11.33;79.82
59009;BME280;44794;42.652;23.318;2023-03-11T07:25:47;92801.84;;;11.29;77.52
59009;BME280;44794;42.652;23.318;2023-03-11T07:28:13;92796.84;;;11.36;77.00
59009;BME280;44794;42.652;23.318;2023-03-11T07:30:39;92786.97;;;11.63;77.22
59009;BME280;44794;42.652;23.318;2023-03-11T07:33:05;92786.81;;;11.73;76.21
59009;BME280;44794;42.652;23.318;2023-03-11T07:35:30;92789.41;;;11.81;75.57
59009;BME280;44794;42.652;23.318;2023-03-11T07:37:56;92785.34;;;11.70;72.93
59009;BME280;44794;42.652;23.318;2023-03-11T07:40:21;92779.16;;;11.47;69.05
59009;BME280;44794;42.652;23.318;2023-03-11T07:42:46;92777.34;;;11.48;67.89
59009;BME280;44794;42.652;23.318;2023-03-11T07:45:12;92775.44;;;11.58;68.05
59009;BME280;44794;42.652;23.318;2023-03-11T07:47:37;92773.31;;;11.77;68.63
59009;BME280;44794;42.652;23.318;2023-03-11T07:50:03;92760.94;;;11.95;69.38
59009;BME280;44794;42.652;23.318;2023-03-11T07:52:30;92768.69;;;12.19;69.46
59009;BME280;44794;42.652;23.318;2023-03-11T07:54:56;92775.97;;;12.23;68.42
59009;BME280;44794;42.652;23.318;2023-03-11T07:57:22;92763.75;;;12.40;69.38
59009;BME280;44794;42.652;23.318;2023-03-11T07:59:47;92760.59;;;12.52;69.19
59009;BME280;44794;42.652;23.318;2023-03-11T08:02:12;92754.28;;;12.47;67.15
59009;BME280;44794;42.652;23.318;2023-03-11T08:04:38;92743.16;;;12.61;67.66
59009;BME280;44794;42.652;23.318;2023-03-11T08:07:03;92744.44;;;12.65;67.20
59009;BME280;44794;42.652;23.318;2023-03-11T08:09:28;92746.88;;;12.66;65.93
59009;BME280;44794;42.652;23.318;2023-03-11T08:11:54;92732.19;;;12.73;65.38
59009;BME280;44794;42.652;23.318;2023-03-11T08:14:19;92729.25;;;12.76;59.69
59009;BME280;44794;42.652;23.318;2023-03-11T08:16:45;92725.78;;;12.83;60.56
59009;BME280;44794;42.652;23.318;2023-03-11T08:19:11;92713.44;;;13.08;59.95
59009;BME280;44794;42.652;23.318;2023-03-11T08:21:37;92712.81;;;13.06;57.90
59009;BME280;44794;42.652;23.318;2023-03-11T08:24:03;92720.47;;;13.07;55.44
59009;BME280;44794;42.652;23.318;2023-03-11T08:26:29;92721.50;;;12.98;55.94
59009;BME280;44794;42.652;23.318;2023-03-11T08:28:56;92709.56;;;13.04;56.50
59009;BME280;44794;42.652;23.318;2023-03-11T08:31:24;92699.38;;;12.94;56.99
59009;BME280;44794;42.652;23.318;2023-03-11T08:33:57;92704.75;;;12.93;57.96
59009;BME280;44794;42.652;23.318;2023-03-11T08:36:23;92685.09;;;13.13;58.34
59009;BME280;44794;42.652;23.318;2023-03-11T08:38:49;92693.34;;;13.39;59.04
59009;BME280;44794;42.652;23.318;2023-03-11T08:41:14;92683.38;;;13.42;59.14
59009;BME280;44794;42.652;23.318;2023-03-11T08:43:40;92673.94;;;13.55;58.93
59009;BME280;44794;42.652;23.318;2023-03-11T08:46:06;92687.38;;;13.52;55.77
59009;BME280;44794;42.652;23.318;2023-03-11T08:48:32;92695.56;;;13.27;55.48
59009;BME280;44794;42.652;23.318;2023-03-11T08:50:58;92682.19;;;13.30;56.21
59009;BME280;44794;42.652;23.318;2023-03-11T08:53:24;92680.44;;;13.23;57.05
59009;BME280;44794;42.652;23.318;2023-03-11T08:55:50;92678.94;;;13.28;56.72
59009;BME280;44794;42.652;23.318;2023-03-11T08:58:16;92683.78;;;13.31;56.37
59009;BME280;44794;42.652;23.318;2023-03-11T09:00:41;92675.03;;;13.47;56.07
59009;BME280;44794;42.652;23.318;2023-03-11T09:03:07;92671.25;;;13.49;54.73
59009;BME280;44794;42.652;23.318;2023-03-11T09:05:32;92675.13;;;13.53;54.19
59009;BME280;44794;42.652;23.318;2023-03-11T09:07:58;92676.88;;;13.60;54.55
59009;BME280;44794;42.652;23.318;2023-03-11T09:10:23;92665.53;;;13.31;54.97
59009;BME280;44794;42.652;23.318;2023-03-11T09:12:49;92682.09;;;13.38;56.28
59009;BME280;44794;42.652;23.318;2023-03-11T09:15:14;92667.13;;;13.54;57.24
59009;BME280;44794;42.652;23.318;2023-03-11T09:17:39;92672.44;;;13.61;55.16
59009;BME280;44794;42.652;23.318;2023-03-11T09:20:05;92675.56;;;13.56;56.38
59009;BME280;44794;42.652;23.318;2023-03-11T09:22:31;92671.72;;;13.67;58.07
59009;BME280;44794;42.652;23.318;2023-03-11T09:24:56;92666.69;;;13.51;57.51
59009;BME280;44794;42.652;23.318;2023-03-11T09:27:22;92663.16;;;13.44;58.06
59009;BME280;44794;42.652;23.318;2023-03-11T09:29:47;92660.56;;;13.44;58.40
59009;BME280;44794;42.652;23.318;2023-03-11T09:32:13;92650.47;;;13.41;58.74
59009;BME280;44794;42.652;23.318;2023-03-11T09:34:39;92646.22;;;13.40;59.59
59009;BME280;44794;42.652;23.318;2023-03-11T09:37:04;92647.53;;;13.44;60.40
59009;BME280;44794;42.652;23.318;2023-03-11T09:39:30;92639.72;;;13.73;60.77
59009;BME280;44794;42.652;23.318;2023-03-11T09:42:01;92646.22;;;13.77;56.30
59009;BME280;44794;42.652;23.318;2023-03-11T09:47:06;92632.16;;;14.35;54.19
59009;BME280;44794;42.652;23.318;2023-03-11T09:52:17;92655.94;;;14.76;52.07
59009;BME280;44794;42.652;23.318;2023-03-11T09:54:50;92652.69;;;14.88;52.10
59009;BME280;44794;42.652;23.318;2023-03-11T09:57:21;92652.56;;;14.96;51.82
59009;BME280;44794;42.652;23.318;2023-03-11T09:59:47;92649.94;;;14.75;50.79
59009;BME280;44794;42.652;23.318;2023-03-11T10:02:21;92641.81;;;14.70;52.81
59009;BME280;44794;42.652;23.318;2023-03-11T10:07:22;92652.47;;;14.90;51.63
59009;BME280;44794;42.652;23.318;2023-03-11T10:09:54;92658.56;;;14.76;50.64
59009;BME280;44794;42.652;23.318;2023-03-11T10:31:18;92680.38;;;15.39;47.43
59009;BME280;44794;42.652;23.318;2023-03-11T10:34:04;92661.22;;;15.59;47.03
59009;BME280;44794;42.652;23.318;2023-03-11T10:36:49;92680.25;;;15.74;45.33
59009;BME280;44794;42.652;23.318;2023-03-11T10:39:18;92674.88;;;15.82;45.96
59009;BME280;44794;42.652;23.318;2023-03-11T10:41:50;92677.31;;;15.83;45.33
59009;BME280;44794;42.652;23.318;2023-03-11T10:44:28;92659.47;;;15.45;46.36
59009;BME280;44794;42.652;23.318;2023-03-11T10:46:55;92663.09;;;15.44;46.36
59009;BME280;44794;42.652;23.318;2023-03-11T10:49:20;92664.16;;;15.29;46.81
59009;BME280;44794;42.652;23.318;2023-03-11T10:51:48;92680.38;;;15.03;47.19
59009;BME280;44794;42.652;23.318;2023-03-11T10:54:41;92683.56;;;14.64;49.19
59009;BME280;44794;42.652;23.318;2023-03-11T10:59:50;92682.81;;;13.69;58.04
59009;BME280;44794;42.652;23.318;2023-03-11T11:02:37;92678.19;;;12.97;61.56
59009;BME280;44794;42.652;23.318;2023-03-11T11:07:41;92680.63;;;13.58;61.90
59009;BME280;44794;42.652;23.318;2023-03-11T11:10:23;92671.31;;;13.92;58.26
59009;BME280;44794;42.652;23.318;2023-03-11T11:15:26;92671.81;;;14.74;53.86
59009;BME280;44794;42.652;23.318;2023-03-11T11:17:53;92664.13;;;14.87;53.80
59009;BME280;44794;42.652;23.318;2023-03-11T11:20:21;92668.13;;;15.04;51.52
59009;BME280;44794;42.652;23.318;2023-03-11T11:22:51;92659.84;;;15.21;52.45
59009;BME280;44794;42.652;23.318;2023-03-11T11:27:58;92663.38;;;14.58;51.67
59009;BME280;44794;42.652;23.318;2023-03-11T11:30:24;92655.13;;;14.11;55.36
59009;BME280;44794;42.652;23.318;2023-03-11T11:32:50;92643.13;;;13.59;62.36
59009;BME280;44794;42.652;23.318;2023-03-11T11:35:21;92619.28;;;13.62;64.54
59009;BME280;44794;42.652;23.318;2023-03-11T11:37:49;92618.16;;;13.79;63.05
59009;BME280;44794;42.652;23.318;2023-03-11T11:42:48;92608.31;;;13.81;57.59
59009;BME280;44794;42.652;23.318;2023-03-11T11:45:22;92610.84;;;14.03;58.67
59009;BME280;44794;42.652;23.318;2023-03-11T11:47:51;92605.53;;;14.11;56.14
59009;BME280;44794;42.652;23.318;2023-03-11T11:50:42;92602.59;;;14.49;55.73
59009;BME280;44794;42.652;23.318;2023-03-11T11:56:10;92594.94;;;15.25;52.48
59009;BME280;44794;42.652;23.318;2023-03-11T11:58:35;92595.25;;;15.36;49.14
59009;BME280;44794;42.652;23.318;2023-03-11T12:01:12;92589.81;;;15.38;47.86
59009;BME280;44794;42.652;23.318;2023-03-11T12:14:17;92582.31;;;15.89;45.78
59009;BME280;44794;42.652;23.318;2023-03-11T12:19:22;92594.38;;;15.57;45.62
59009;BME280;44794;42.652;23.318;2023-03-11T12:27:31;92602.47;;;15.62;46.07
59009;BME280;44794;42.652;23.318;2023-03-11T12:30:05;92600.44;;;15.57;46.16
59009;BME280;44794;42.652;23.318;2023-03-11T12:32:40;92599.31;;;15.73;47.15
59009;BME280;44794;42.652;23.318;2023-03-11T12:37:44;92592.09;;;15.75;48.10
59009;BME280;44794;42.652;23.318;2023-03-11T12:43:03;92593.88;;;15.68;49.20
59009;BME280;44794;42.652;23.318;2023-03-11T12:45:48;92587.59;;;15.69;48.23
59009;BME280;44794;42.652;23.318;2023-03-11T12:48:33;92593.09;;;15.74;48.94
59009;BME280;44794;42.652;23.318;2023-03-11T12:51:00;92601.09;;;15.66;47.72
59009;BME280;44794;42.652;23.318;2023-03-11T12:53:46;92590.28;;;15.75;47.30
59009;BME280;44794;42.652;23.318;2023-03-11T12:56:39;92585.75;;;15.90;47.70
59009;BME280;44794;42.652;23.318;2023-03-11T13:15:52;92642.44;;;15.28;47.71
59009;BME280;44794;42.652;23.318;2023-03-11T13:18:27;92647.78;;;15.00;48.38
59009;BME280;44794;42.652;23.318;2023-03-11T13:23:37;92646.31;;;13.98;52.17
59009;BME280;44794;42.652;23.318;2023-03-11T13:26:24;92648.72;;;13.70;54.00
59009;BME280;44794;42.652;23.318;2023-03-11T13:30:03;92657.41;;;13.48;55.60
59009;BME280;44794;42.652;23.318;2023-03-11T13:32:05;92679.03;;;13.35;55.64
59009;BME280;44794;42.652;23.318;2023-03-11T13:45:26;92670.38;;;9.90;98.31
59009;BME280;44794;42.652;23.318;2023-03-11T13:47:57;92667.84;;;9.73;100.00
59009;BME280;44794;42.652;23.318;2023-03-11T13:50:31;92663.78;;;9.70;100.00
59009;BME280;44794;42.652;23.318;2023-03-11T13:53:02;92668.63;;;9.66;100.00
59009;BME280;44794;42.652;23.318;2023-03-11T13:55:37;92669.72;;;9.55;100.00
59009;BME280;44794;42.652;23.318;2023-03-11T13:58:25;92662.63;;;9.57;100.00
59009;BME280;44794;42.652;23.318;2023-03-11T14:00:55;92655.63;;;9.58;100.00
59009;BME280;44794;42.652;23.318;2023-03-11T14:03:23;92638.81;;;9.62;100.00
59009;BME280;44794;42.652;23.318;2023-03-11T14:06:16;92627.25;;;9.89;100.00
59009;BME280;44794;42.652;23.318;2023-03-11T14:08:54;92631.56;;;10.06;100.00
59009;BME280;44794;42.652;23.318;2023-03-11T14:11:24;92635.16;;;10.13;100.00
59009;BME280;44794;42.652;23.318;2023-03-11T14:13:51;92638.41;;;10.15;100.00
59009;BME280;44794;42.652;23.318;2023-03-11T14:19:01;92649.00;;;10.38;100.00
59009;BME280;44794;42.652;23.318;2023-03-11T14:21:27;92654.03;;;10.47;100.00
59009;BME280;44794;42.652;23.318;2023-03-11T14:23:54;92652.94;;;10.57;100.00
59009;BME280;44794;42.652;23.318;2023-03-11T14:28:56;92670.28;;;10.49;96.21
59009;BME280;44794;42.652;23.318;2023-03-11T14:31:33;92680.16;;;10.46;94.19
59009;BME280;44794;42.652;23.318;2023-03-11T14:34:10;92681.63;;;10.48;93.58
59009;BME280;44794;42.652;23.318;2023-03-11T14:36:56;92681.34;;;10.59;92.29
59009;BME280;44794;42.652;23.318;2023-03-11T14:39:34;92699.22;;;10.78;90.02
59009;BME280;44794;42.652;23.318;2023-03-11T14:44:38;92691.09;;;10.73;91.43
59009;BME280;44794;42.652;23.318;2023-03-11T14:47:11;92712.16;;;10.70;90.28
59009;BME280;44794;42.652;23.318;2023-03-11T14:49:40;92695.59;;;10.63;92.14
59009;BME280;44794;42.652;23.318;2023-03-11T14:54:55;92705.34;;;10.69;91.21